Time;durP1;ratioP1;P1;durP2;ratioP2;P2;SDS_P1;SDS_P2;PMS_P1;PMS_P2;Temp;Humidity;BMP_temperature;BMP_pressure;BME280_temperature;BME280_humidity;BME280_pressure;Samples;Min_cycle;Max_cycle;Signal;HPM_P1;HPM_P2
2022/02/14 00:00:16;;;;;;;7.83;4.27;;;16.40;39.60;;;;;;5024674;28;20440;-82
2022/02/14 00:02:44;;;;;;;5.50;4.37;;;16.50;39.70;;;;;;5025106;28;20486;-82
2022/02/14 00:05:13;;;;;;;7.10;4.67;;;16.40;39.70;;;;;;5019918;28;20467;-82
2022/02/14 00:07:41;;;;;;;6.00;4.40;;;16.50;39.70;;;;;;5024800;28;20496;-80
2022/02/14 00:10:09;;;;;;;7.93;4.30;;;16.40;39.60;;;;;;5024981;28;20464;-80
2022/02/14 00:12:39;;;;;;;5.93;4.27;;;16.50;39.80;;;;;;5013430;28;20819;-80
2022/02/14 00:15:10;;;;;;;6.10;4.40;;;16.50;39.70;;;;;;5025423;28;20452;-80
2022/02/14 00:17:38;;;;;;;4.70;4.20;;;16.50;39.70;;;;;;5012763;28;20492;-82
2022/02/14 00:20:06;;;;;;;11.60;4.50;;;16.40;39.80;;;;;;5014764;28;20460;-80
2022/02/14 00:22:34;;;;;;;6.17;4.03;;;16.50;39.70;;;;;;5023618;28;20444;-80
2022/02/14 00:25:03;;;;;;;5.43;4.00;;;16.50;39.70;;;;;;5032999;28;20463;-80
2022/02/14 00:27:31;;;;;;;7.57;3.87;;;16.50;39.80;;;;;;5021917;28;20469;-81
2022/02/14 00:29:59;;;;;;;8.33;4.27;;;16.50;39.80;;;;;;5013018;28;20449;-80
2022/02/14 00:32:28;;;;;;;6.70;4.00;;;16.50;39.70;;;;;;5014292;28;20457;-81
2022/02/14 00:34:56;;;;;;;9.80;4.30;;;16.50;39.80;;;;;;5010684;28;20488;-80
2022/02/14 00:37:26;;;;;;;5.40;4.10;;;16.50;39.80;;;;;;5014406;28;20472;-81
2022/02/14 00:39:54;;;;;;;6.20;3.90;;;16.50;39.80;;;;;;5022738;28;20441;-80
2022/02/14 00:42:23;;;;;;;5.70;4.10;;;16.50;39.80;;;;;;5019204;28;20426;-82
2022/02/14 00:44:51;;;;;;;9.37;4.27;;;16.50;39.90;;;;;;5022776;28;20460;-81
2022/02/14 00:47:21;;;;;;;6.53;3.70;;;16.50;39.80;;;;;;5023599;28;20429;-81
2022/02/14 00:49:51;;;;;;;7.97;4.10;;;16.50;39.90;;;;;;5018361;28;20471;-80
2022/02/14 00:52:19;;;;;;;7.07;4.03;;;16.50;39.90;;;;;;5016641;28;20444;-80
2022/02/14 00:54:46;;;;;;;6.80;4.00;;;16.50;39.80;;;;;;5020629;28;20480;-81
2022/02/14 00:57:14;;;;;;;4.70;4.03;;;16.50;39.90;;;;;;5022060;28;20445;-81
2022/02/14 00:59:42;;;;;;;6.20;3.77;;;16.50;40.00;;;;;;5025220;28;20500;-81
2022/02/14 01:02:10;;;;;;;6.83;4.10;;;16.50;40.00;;;;;;5021383;28;20445;-81
2022/02/14 01:04:38;;;;;;;4.00;3.60;;;16.50;39.90;;;;;;5022326;28;20449;-80
2022/02/14 01:07:07;;;;;;;6.03;4.00;;;16.50;40.00;;;;;;5023345;28;20437;-81
2022/02/14 01:09:35;;;;;;;7.67;3.80;;;16.50;40.10;;;;;;5014572;28;20476;-81
2022/02/14 01:12:04;;;;;;;4.23;3.77;;;16.50;40.20;;;;;;5022437;28;20456;-81
2022/02/14 01:14:32;;;;;;;6.33;3.50;;;16.50;40.20;;;;;;5021215;28;20450;-81
2022/02/14 01:16:59;;;;;;;9.70;4.00;;;16.50;40.20;;;;;;5023230;28;20475;-81
2022/02/14 01:19:27;;;;;;;4.50;4.10;;;16.50;40.20;;;;;;5020546;28;20476;-81
2022/02/14 01:21:55;;;;;;;4.93;3.73;;;16.50;40.20;;;;;;5015455;28;20449;-82
2022/02/14 01:24:24;;;;;;;5.63;3.80;;;16.60;40.30;;;;;;5018651;28;20479;-83
2022/02/14 01:26:54;;;;;;;7.50;3.67;;;16.60;40.40;;;;;;5016004;28;20456;-81
2022/02/14 01:29:22;;;;;;;5.77;3.60;;;16.50;40.20;;;;;;5018184;28;20472;-81
2022/02/14 01:31:50;;;;;;;7.67;3.93;;;16.60;40.40;;;;;;5023044;28;20445;-81
2022/02/14 01:34:18;;;;;;;4.80;3.23;;;16.60;40.30;;;;;;5020027;28;20488;-81
2022/02/14 01:36:46;;;;;;;5.80;3.70;;;16.50;40.20;;;;;;5019765;28;20440;-81
2022/02/14 01:39:14;;;;;;;11.63;3.60;;;16.60;40.90;;;;;;5021489;28;20433;-81
2022/02/14 01:41:43;;;;;;;5.30;3.70;;;16.60;40.20;;;;;;5022609;28;20460;-81
2022/02/14 01:44:11;;;;;;;9.50;4.30;;;16.60;40.30;;;;;;5018436;28;20472;-81
2022/02/14 01:46:39;;;;;;;5.67;3.60;;;16.60;40.40;;;;;;5022501;28;20437;-81
2022/02/14 01:49:07;;;;;;;8.63;3.50;;;16.60;40.40;;;;;;5020392;28;20535;-81
2022/02/14 01:51:35;;;;;;;5.07;3.40;;;16.60;40.60;;;;;;5020456;28;20433;-81
2022/02/14 01:54:03;;;;;;;9.23;3.57;;;16.60;40.40;;;;;;5019849;28;20451;-81
2022/02/14 01:56:31;;;;;;;5.90;3.70;;;16.60;40.30;;;;;;5022618;28;20446;-82
2022/02/14 01:59:00;;;;;;;4.23;3.83;;;16.70;40.40;;;;;;5012293;28;20452;-81
2022/02/14 02:01:28;;;;;;;4.73;3.07;;;16.60;40.40;;;;;;5008594;28;20453;-81
2022/02/14 02:03:57;;;;;;;3.57;3.27;;;16.60;40.50;;;;;;5005306;28;20551;-81
2022/02/14 02:06:25;;;;;;;3.73;3.43;;;16.60;40.60;;;;;;5008868;28;20445;-81
2022/02/14 02:08:52;;;;;;;4.20;3.60;;;16.60;40.60;;;;;;5013932;28;20469;-81
2022/02/14 02:14:08;;;;;;;5.70;3.60;;;16.70;40.60;;;;;;5003013;28;20449;-81
2022/02/14 02:16:36;;;;;;;6.90;3.70;;;16.60;40.60;;;;;;5001332;28;20441;-81
2022/02/14 02:19:04;;;;;;;5.47;3.27;;;16.60;40.70;;;;;;5002665;28;20519;-82
2022/02/14 02:21:32;;;;;;;4.17;3.50;;;16.70;40.70;;;;;;4999874;28;20484;-82
2022/02/14 02:24:00;;;;;;;5.10;3.83;;;16.70;40.60;;;;;;5004524;28;20460;-82
2022/02/14 02:26:31;;;;;;;3.60;3.30;;;16.70;40.70;;;;;;4999907;28;20496;-81
2022/02/14 02:28:59;;;;;;;6.30;3.60;;;16.60;40.60;;;;;;4992689;28;20504;-82
2022/02/14 02:31:26;;;;;;;4.13;3.23;;;16.60;40.60;;;;;;4992801;28;20487;-82
2022/02/14 02:33:54;;;;;;;6.40;3.30;;;16.70;40.80;;;;;;4993048;28;20453;-81
2022/02/14 02:36:22;;;;;;;8.57;3.20;;;16.70;40.80;;;;;;4993056;28;20449;-81
2022/02/14 02:38:50;;;;;;;7.60;3.43;;;16.70;40.80;;;;;;4991084;28;20504;-82
2022/02/14 02:41:18;;;;;;;7.53;3.80;;;16.70;40.90;;;;;;4993411;28;20465;-82
2022/02/14 02:43:47;;;;;;;6.00;3.37;;;16.70;40.90;;;;;;4993298;28;20528;-82
2022/02/14 02:46:15;;;;;;;9.53;3.57;;;16.70;41.00;;;;;;4993515;28;20469;-82
2022/02/14 02:48:43;;;;;;;5.53;3.37;;;16.70;40.80;;;;;;4994893;28;20520;-82
2022/02/14 02:51:11;;;;;;;3.50;3.07;;;16.70;40.90;;;;;;4996285;28;20465;-82
2022/02/14 02:53:39;;;;;;;6.20;3.27;;;16.70;40.80;;;;;;4995726;28;21017;-82
2022/02/14 02:56:07;;;;;;;3.70;2.97;;;16.70;40.80;;;;;;4991797;28;20473;-82
2022/02/14 02:58:35;;;;;;;5.50;3.30;;;16.70;40.90;;;;;;4995498;28;20472;-82
2022/02/14 03:01:04;;;;;;;5.20;3.40;;;16.70;41.00;;;;;;4998210;28;20487;-82
2022/02/14 03:03:32;;;;;;;4.63;3.40;;;16.70;41.10;;;;;;4995729;28;20481;-82
2022/02/14 03:06:00;;;;;;;4.57;3.63;;;16.70;41.10;;;;;;4996011;28;20497;-82
2022/02/14 03:08:28;;;;;;;3.70;3.40;;;16.70;41.10;;;;;;4995444;28;20469;-82
2022/02/14 03:10:56;;;;;;;6.00;3.20;;;16.70;41.20;;;;;;4995046;28;20457;-82
2022/02/14 03:13:24;;;;;;;4.37;3.20;;;16.70;41.20;;;;;;4991562;28;20508;-82
2022/02/14 03:15:52;;;;;;;6.23;3.37;;;16.70;41.10;;;;;;4994535;28;20486;-81
2022/02/14 03:18:21;;;;;;;4.83;3.40;;;16.70;41.20;;;;;;4994683;28;20438;-81
2022/02/14 03:20:49;;;;;;;4.30;3.40;;;16.70;41.20;;;;;;4994374;28;20464;-82
2022/02/14 03:23:17;;;;;;;4.30;2.97;;;16.70;41.10;;;;;;4995037;28;20469;-82
2022/02/14 03:25:45;;;;;;;6.30;3.43;;;16.70;41.20;;;;;;4994552;28;20600;-82
2022/02/14 03:28:13;;;;;;;5.20;3.40;;;16.70;41.20;;;;;;4994830;28;20544;-81
2022/02/14 03:30:40;;;;;;;6.53;3.07;;;16.70;41.20;;;;;;4990133;28;20508;-82
2022/02/14 03:33:08;;;;;;;5.60;3.67;;;16.70;41.30;;;;;;4989993;28;20472;-81
2022/02/14 03:35:38;;;;;;;5.53;3.53;;;16.70;41.40;;;;;;4999178;28;20497;-82
2022/02/14 03:38:06;;;;;;;3.37;3.07;;;16.70;41.30;;;;;;4995463;28;20457;-82
2022/02/14 03:40:34;;;;;;;5.63;3.70;;;16.70;41.30;;;;;;4998701;28;20465;-82
2022/02/14 03:43:02;;;;;;;4.00;2.83;;;16.70;41.40;;;;;;4998755;28;20497;-82
2022/02/14 03:45:31;;;;;;;6.60;3.47;;;16.80;41.50;;;;;;4998565;28;20488;-82
2022/02/14 03:47:58;;;;;;;3.40;3.10;;;16.80;41.50;;;;;;4998155;28;20488;-82
2022/02/14 03:50:26;;;;;;;6.57;3.20;;;16.80;41.50;;;;;;4999465;28;20512;-82
2022/02/14 03:52:56;;;;;;;5.60;3.23;;;16.70;41.30;;;;;;4999574;28;20461;-82
2022/02/14 03:55:24;;;;;;;3.30;3.10;;;16.80;41.60;;;;;;4999002;28;20476;-82
2022/02/14 03:57:51;;;;;;;4.80;3.40;;;16.80;41.60;;;;;;4999708;28;20473;-82
2022/02/14 04:00:20;;;;;;;6.30;3.30;;;16.80;41.60;;;;;;4999658;28;20949;-82
2022/02/14 04:02:48;;;;;;;5.23;3.07;;;16.80;41.50;;;;;;4999267;28;20445;-81
2022/02/14 04:05:17;;;;;;;6.20;3.30;;;16.80;41.80;;;;;;4996353;28;20539;-82
2022/02/14 04:07:45;;;;;;;15.67;3.73;;;16.80;41.60;;;;;;5002681;28;20489;-82
2022/02/14 04:10:14;;;;;;;6.53;3.27;;;16.80;41.60;;;;;;5000040;28;20507;-81
2022/02/14 04:12:43;;;;;;;11.83;3.30;;;16.80;41.70;;;;;;4999651;28;20473;-81
2022/02/14 04:15:11;;;;;;;3.87;2.90;;;16.80;41.70;;;;;;4999534;28;20481;-81
2022/02/14 04:17:39;;;;;;;8.07;2.93;;;16.80;41.60;;;;;;4999088;28;20453;-81
2022/02/14 04:20:08;;;;;;;4.70;3.37;;;16.80;41.60;;;;;;4999201;28;20492;-81
2022/02/14 04:22:37;;;;;;;4.77;3.50;;;16.90;41.80;;;;;;4999289;28;20472;-82
2022/02/14 04:25:05;;;;;;;3.40;3.10;;;16.80;41.60;;;;;;4995346;28;21094;-81
2022/02/14 04:27:34;;;;;;;9.80;3.80;;;16.80;41.70;;;;;;4999553;28;20496;-81
2022/02/14 04:30:02;;;;;;;4.30;3.40;;;16.80;41.70;;;;;;4999544;28;20528;-81
2022/02/14 04:32:30;;;;;;;4.50;3.13;;;16.80;41.70;;;;;;4999371;28;20533;-81
2022/02/14 04:34:58;;;;;;;5.40;3.13;;;16.90;41.80;;;;;;4999148;28;20496;-81
2022/02/14 04:37:26;;;;;;;3.20;3.00;;;16.80;41.80;;;;;;4998527;28;20472;-81
2022/02/14 04:39:54;;;;;;;4.43;2.80;;;16.90;41.80;;;;;;4993465;28;20470;-82
2022/02/14 04:42:22;;;;;;;3.03;2.77;;;16.90;41.90;;;;;;4999566;28;20479;-81
2022/02/14 04:44:51;;;;;;;5.70;3.33;;;16.90;41.80;;;;;;4997923;28;21047;-81
2022/02/14 04:47:19;;;;;;;4.37;3.30;;;16.90;41.90;;;;;;4998663;28;20436;-82
2022/02/14 04:49:47;;;;;;;4.33;3.10;;;16.90;41.80;;;;;;4998572;28;20509;-82
2022/02/14 04:52:15;;;;;;;8.60;3.30;;;16.90;41.90;;;;;;4998929;28;20465;-82
2022/02/14 04:54:44;;;;;;;6.43;2.83;;;16.90;42.00;;;;;;4998369;28;20476;-82
2022/02/14 04:57:11;;;;;;;4.90;3.40;;;16.90;42.00;;;;;;4996361;28;20496;-82
2022/02/14 04:59:40;;;;;;;4.60;2.63;;;16.90;42.10;;;;;;4998631;28;20434;-82
2022/02/14 05:02:09;;;;;;;10.50;3.10;;;16.90;42.10;;;;;;4998985;28;20462;-81
2022/02/14 05:04:37;;;;;;;4.53;3.10;;;16.90;42.10;;;;;;4998502;28;20512;-82
2022/02/14 05:07:05;;;;;;;6.63;2.80;;;16.90;42.00;;;;;;4998714;28;20465;-82
2022/02/14 05:09:32;;;;;;;11.57;3.60;;;16.90;42.10;;;;;;4998978;28;20437;-81
2022/02/14 05:12:00;;;;;;;10.60;3.17;;;16.90;42.10;;;;;;4999428;28;20449;-82
2022/02/14 05:14:29;;;;;;;6.23;2.93;;;16.90;42.00;;;;;;4996322;28;20504;-81
2022/02/14 05:16:57;;;;;;;7.10;3.47;;;16.80;42.10;;;;;;4999599;28;20457;-81
2022/02/14 05:19:26;;;;;;;5.13;3.10;;;16.80;42.10;;;;;;4999336;28;20433;-82
2022/02/14 05:21:54;;;;;;;5.20;3.40;;;16.80;42.10;;;;;;4998903;28;20433;-82
2022/02/14 05:24:22;;;;;;;8.20;2.80;;;16.80;42.20;;;;;;4997526;28;20515;-82
2022/02/14 05:26:50;;;;;;;7.10;3.00;;;16.80;42.10;;;;;;4998795;28;20477;-82
2022/02/14 05:29:18;;;;;;;4.20;2.80;;;16.80;42.30;;;;;;4999746;28;20449;-82
2022/02/14 05:31:45;;;;;;;6.33;3.00;;;16.80;42.20;;;;;;4999682;28;20520;-82
2022/02/14 05:34:13;;;;;;;12.00;3.40;;;16.80;42.20;;;;;;5001121;28;20488;-82
2022/02/14 05:36:43;;;;;;;5.43;3.13;;;16.80;42.40;;;;;;5000573;28;20441;-82
2022/02/14 05:39:12;;;;;;;2.97;2.77;;;16.80;42.40;;;;;;5000274;28;20436;-82
2022/02/14 05:41:39;;;;;;;3.73;3.30;;;16.80;42.40;;;;;;4999699;28;20461;-82
2022/02/14 05:44:08;;;;;;;6.67;3.40;;;16.70;42.40;;;;;;4998819;28;20445;-82
2022/02/14 05:46:36;;;;;;;3.40;2.77;;;16.70;42.30;;;;;;4999274;28;20532;-82
2022/02/14 05:49:04;;;;;;;4.63;3.07;;;16.80;42.40;;;;;;4993676;28;20453;-82
2022/02/14 05:51:32;;;;;;;4.70;3.20;;;16.70;42.30;;;;;;4998698;28;20468;-82
2022/02/14 05:54:04;;;;;;;5.90;2.80;;;16.80;42.50;;;;;;4998729;28;20434;-82
2022/02/14 05:56:32;;;;;;;5.43;2.93;;;16.70;42.40;;;;;;4997659;28;20445;-82
2022/02/14 05:59:00;;;;;;;4.53;3.17;;;16.70;42.40;;;;;;4999022;28;20517;-82
2022/02/14 06:01:28;;;;;;;6.77;3.30;;;16.80;42.50;;;;;;4998629;28;20442;-82
2022/02/14 06:03:56;;;;;;;3.20;2.90;;;16.70;42.40;;;;;;4994925;28;20504;-82
2022/02/14 06:06:24;;;;;;;6.63;3.10;;;16.70;42.50;;;;;;4998462;28;20561;-82
2022/02/14 06:08:52;;;;;;;5.27;3.27;;;16.80;42.50;;;;;;4997789;28;20453;-82
2022/02/14 06:11:21;;;;;;;5.60;3.27;;;16.80;42.50;;;;;;4997904;28;20468;-82
2022/02/14 06:13:49;;;;;;;4.63;2.93;;;16.80;42.50;;;;;;4997960;28;20465;-82
2022/02/14 06:16:17;;;;;;;5.20;2.90;;;16.80;42.50;;;;;;4998296;28;20469;-82
2022/02/14 06:18:48;;;;;;;5.17;2.90;;;16.80;42.50;;;;;;4997670;28;20441;-81
2022/02/14 06:21:17;;;;;;;4.37;2.70;;;16.80;42.40;;;;;;4996415;28;20468;-81
2022/02/14 06:23:45;;;;;;;6.30;3.43;;;16.80;42.50;;;;;;4994647;28;20454;-81
2022/02/14 06:26:13;;;;;;;4.60;3.00;;;16.80;42.40;;;;;;4997180;28;20465;-82
2022/02/14 06:28:42;;;;;;;4.47;3.27;;;16.80;43.10;;;;;;4997995;28;20817;-82
2022/02/14 06:31:10;;;;;;;5.13;2.90;;;16.80;42.50;;;;;;4997378;28;20473;-82
2022/02/14 06:33:43;;;;;;;9.97;3.40;;;16.80;42.60;;;;;;4997133;28;20445;-81
2022/02/14 06:36:10;;;;;;;4.27;3.20;;;16.80;42.50;;;;;;4996744;28;20462;-81
2022/02/14 06:38:38;;;;;;;6.00;2.93;;;16.80;42.50;;;;;;4996155;28;20486;-82
2022/02/14 06:41:06;;;;;;;4.07;3.03;;;16.80;42.60;;;;;;4996615;28;20429;-81
2022/02/14 06:43:35;;;;;;;4.53;3.03;;;16.90;42.60;;;;;;4997241;28;20440;-82
2022/02/14 06:46:04;;;;;;;4.93;2.90;;;16.90;42.50;;;;;;4997518;28;20515;-82
2022/02/14 06:48:32;;;;;;;6.50;3.07;;;16.90;42.40;;;;;;4997342;28;20429;-82
2022/02/14 06:51:00;;;;;;;6.20;3.03;;;16.90;42.40;;;;;;4997343;28;20937;-82
2022/02/14 06:53:28;;;;;;;3.13;2.83;;;16.90;42.50;;;;;;4997293;28;20445;-82
2022/02/14 06:55:56;;;;;;;4.00;2.90;;;16.90;42.60;;;;;;4998168;28;20492;-82
2022/02/14 06:58:24;;;;;;;5.37;3.27;;;16.90;42.60;;;;;;4993645;28;20461;-82
2022/02/14 07:00:52;;;;;;;6.40;2.90;;;16.90;42.60;;;;;;4997223;28;20496;-82
2022/02/14 07:03:21;;;;;;;5.63;2.97;;;16.90;42.60;;;;;;4996792;28;20889;-82
2022/02/14 07:05:49;;;;;;;3.83;2.80;;;16.90;42.60;;;;;;4996981;28;20453;-82
2022/02/14 07:08:17;;;;;;;9.73;3.70;;;16.90;42.60;;;;;;4999451;28;20441;-81
2022/02/14 07:10:45;;;;;;;8.70;2.73;;;17.00;42.70;;;;;;5001080;28;20483;-81
2022/02/14 07:13:12;;;;;;;4.83;3.20;;;16.90;42.50;;;;;;5002283;28;20446;-82
2022/02/14 07:15:42;;;;;;;3.57;2.40;;;16.90;42.50;;;;;;4998724;28;20480;-82
2022/02/14 07:18:11;;;;;;;8.33;3.57;;;17.00;42.70;;;;;;5001450;28;20492;-82
2022/02/14 07:20:40;;;;;;;5.13;2.90;;;17.00;42.60;;;;;;5000766;28;20486;-82
2022/02/14 07:23:08;;;;;;;2.80;2.60;;;17.00;42.60;;;;;;5002064;28;20843;-82
2022/02/14 07:25:36;;;;;;;3.13;2.83;;;17.00;42.50;;;;;;5002162;28;20461;-81
2022/02/14 07:28:04;;;;;;;8.33;2.90;;;17.10;43.10;;;;;;5001734;28;20464;-82
2022/02/14 07:30:32;;;;;;;5.57;3.00;;;17.10;42.50;;;;;;5000824;28;20829;-82
2022/02/14 07:33:00;;;;;;;3.13;2.60;;;17.10;42.60;;;;;;4998477;28;20508;-82
2022/02/14 07:35:33;;;;;;;3.60;2.40;;;17.10;42.50;;;;;;5001761;28;20457;-82
2022/02/14 07:38:02;;;;;;;4.67;2.63;;;17.10;42.60;;;;;;5001197;28;20445;-81
2022/02/14 07:40:30;;;;;;;3.30;2.63;;;17.10;42.50;;;;;;4998999;28;20532;-82
2022/02/14 07:42:58;;;;;;;4.10;2.90;;;17.10;42.50;;;;;;4998344;28;20475;-82
2022/02/14 07:45:26;;;;;;;8.47;3.20;;;17.20;42.50;;;;;;4998945;28;20465;-82
2022/02/14 07:47:54;;;;;;;2.93;2.70;;;17.20;42.60;;;;;;4996971;28;20466;-82
2022/02/14 07:50:23;;;;;;;3.10;2.80;;;17.20;42.60;;;;;;4996365;28;20500;-82
2022/02/14 07:52:51;;;;;;;9.47;3.17;;;17.20;42.60;;;;;;4999241;28;20519;-82
2022/02/14 07:55:20;;;;;;;4.63;3.17;;;17.20;42.50;;;;;;4997971;28;20457;-82
2022/02/14 07:57:48;;;;;;;4.20;2.73;;;17.20;42.60;;;;;;4998516;28;20456;-82
2022/02/14 08:00:17;;;;;;;3.30;2.57;;;17.20;42.60;;;;;;4999198;28;20475;-82
2022/02/14 08:02:47;;;;;;;5.73;3.30;;;17.30;42.70;;;;;;4999442;28;20444;-82
2022/02/14 08:05:15;;;;;;;4.80;2.77;;;17.30;42.80;;;;;;4997172;28;20522;-82
2022/02/14 08:07:43;;;;;;;5.60;2.60;;;17.30;42.50;;;;;;4998631;28;20437;-82
2022/02/14 08:10:32;;;;;;;3.17;2.53;;;17.30;42.60;;;;;;4998363;28;20444;-82
2022/02/14 08:13:00;;;;;;;2.83;2.30;;;17.40;42.70;;;;;;4998906;28;20469;-82
2022/02/14 08:15:28;;;;;;;5.60;2.50;;;17.40;42.60;;;;;;4999177;28;20504;-82
2022/02/14 08:17:59;;;;;;;6.03;2.50;;;17.50;42.60;;;;;;4997790;28;20440;-82
2022/02/14 08:20:27;;;;;;;9.10;2.43;;;17.50;42.50;;;;;;4997151;28;20511;-82
2022/02/14 08:22:54;;;;;;;4.83;3.10;;;17.60;42.60;;;;;;4997352;28;20433;-82
2022/02/14 08:25:22;;;;;;;6.03;2.60;;;17.60;42.50;;;;;;4997932;28;20504;-82
2022/02/14 08:27:52;;;;;;;9.50;2.90;;;17.70;42.60;;;;;;4998941;28;20479;-82
2022/02/14 08:30:20;;;;;;;3.67;2.60;;;17.80;42.60;;;;;;4998333;28;20457;-82
2022/02/14 08:32:49;;;;;;;6.60;2.60;;;17.80;42.30;;;;;;4997642;28;20894;-82
2022/02/14 08:35:17;;;;;;;2.50;2.30;;;17.80;42.40;;;;;;4998032;28;20453;-82
2022/02/14 08:37:45;;;;;;;10.43;2.70;;;18.00;42.40;;;;;;4998319;28;20437;-82
2022/02/14 08:40:13;;;;;;;3.27;2.60;;;18.00;42.40;;;;;;4998962;28;20441;-82
2022/02/14 08:42:43;;;;;;;4.30;2.50;;;18.10;42.20;;;;;;4996412;28;20532;-81
2022/02/14 08:45:14;;;;;;;5.73;2.70;;;18.20;42.10;;;;;;4999569;28;20459;-83
2022/02/14 08:47:43;;;;;;;3.53;2.00;;;18.20;42.10;;;;;;4998549;28;20472;-82
2022/02/14 08:50:11;;;;;;;3.10;2.80;;;18.30;42.60;;;;;;4999051;28;20489;-82
2022/02/14 08:52:39;;;;;;;4.10;2.57;;;18.30;41.90;;;;;;4997949;28;20481;-82
2022/02/14 08:55:09;;;;;;;3.83;2.43;;;18.30;41.90;;;;;;4999042;28;20504;-82
2022/02/14 08:57:36;;;;;;;4.83;2.97;;;18.30;41.80;;;;;;4997933;28;20540;-82
2022/02/14 09:00:05;;;;;;;4.03;2.50;;;18.30;41.80;;;;;;4994967;28;20504;-83
2022/02/14 09:02:35;;;;;;;4.30;2.53;;;18.40;42.00;;;;;;4997203;28;20456;-82
2022/02/14 09:05:03;;;;;;;4.00;2.63;;;18.40;41.70;;;;;;4997213;28;20481;-82
2022/02/14 09:07:30;;;;;;;3.63;2.57;;;18.40;41.90;;;;;;4995216;28;20532;-82
2022/02/14 09:09:58;;;;;;;4.13;2.67;;;18.50;41.90;;;;;;4996765;28;20452;-82
2022/02/14 09:12:26;;;;;;;7.43;2.73;;;18.60;41.90;;;;;;4997017;28;20476;-83
2022/02/14 09:14:54;;;;;;;2.53;2.33;;;18.60;41.80;;;;;;4996650;28;20488;-82
2022/02/14 09:17:22;;;;;;;6.30;2.80;;;18.60;41.80;;;;;;4995284;28;20421;-82
2022/02/14 09:19:52;;;;;;;3.53;2.27;;;18.60;41.60;;;;;;4997678;28;20461;-82
2022/02/14 09:22:19;;;;;;;8.23;2.40;;;18.60;41.80;;;;;;4997502;28;20468;-82
2022/02/14 09:24:47;;;;;;;5.80;2.47;;;18.60;41.80;;;;;;4998146;28;20465;-82
2022/02/14 09:27:15;;;;;;;4.23;2.60;;;18.60;41.80;;;;;;5000110;28;20445;-82
2022/02/14 09:29:43;;;;;;;2.90;2.60;;;18.60;42.00;;;;;;4997139;28;20434;-82
2022/02/14 09:32:11;;;;;;;2.50;2.30;;;18.60;41.80;;;;;;4997530;28;20480;-82
2022/02/14 09:34:39;;;;;;;4.57;2.63;;;18.60;42.00;;;;;;4993107;28;20508;-83
2022/02/14 09:37:10;;;;;;;3.07;2.20;;;18.60;42.00;;;;;;4976354;28;20438;-83
2022/02/14 09:39:38;;;;;;;3.70;2.37;;;18.70;42.00;;;;;;4993819;28;20524;-82
2022/02/14 09:42:07;;;;;;;3.10;2.40;;;18.80;42.00;;;;;;4997265;28;20556;-82
2022/02/14 09:44:35;;;;;;;5.80;2.43;;;18.80;42.00;;;;;;4996932;28;20527;-82
2022/02/14 09:47:04;;;;;;;5.80;2.70;;;18.80;41.90;;;;;;4997954;28;20445;-82
2022/02/14 09:49:32;;;;;;;3.50;2.63;;;18.80;41.90;;;;;;4995716;28;20535;-82
2022/02/14 09:52:00;;;;;;;3.77;2.73;;;18.80;42.00;;;;;;4997956;28;20488;-82
2022/02/14 09:54:30;;;;;;;3.60;2.10;;;18.80;42.00;;;;;;5000460;28;20465;-82
2022/02/14 09:56:58;;;;;;;2.83;2.07;;;18.80;42.00;;;;;;5000381;28;20457;-83
2022/02/14 09:59:26;;;;;;;3.33;2.20;;;18.80;42.00;;;;;;4998907;28;20454;-83
2022/02/14 10:01:54;;;;;;;3.33;2.20;;;18.80;42.70;;;;;;5004509;28;20457;-83
2022/02/14 10:04:22;;;;;;;5.30;2.17;;;18.90;42.20;;;;;;5007405;28;20457;-82
2022/02/14 10:09:54;;;;;;;3.57;2.60;;;19.10;42.20;;;;;;5002729;28;20449;-82
2022/02/14 10:12:27;;;;;;;3.20;2.10;;;19.10;42.00;;;;;;5007811;28;20480;-82
2022/02/14 10:15:06;;;;;;;3.30;1.80;;;19.10;42.00;;;;;;5008047;28;20449;-82
2022/02/14 10:17:39;;;;;;;1.87;1.77;;;19.10;42.10;;;;;;5003283;28;20449;-82
2022/02/14 10:20:12;;;;;;;2.00;1.90;;;19.00;42.10;;;;;;5004491;28;20476;-82
2022/02/14 10:22:54;;;;;;;3.47;2.27;;;19.00;42.20;;;;;;5001532;28;20421;-82
2022/02/14 10:25:41;;;;;;;2.43;2.10;;;19.00;42.20;;;;;;4998436;28;20504;-82
2022/02/14 10:28:28;;;;;;;2.77;2.00;;;19.00;42.40;;;;;;4981231;28;20445;-82
2022/02/14 10:30:59;;;;;;;2.40;2.20;;;18.90;43.00;;;;;;4982905;28;20430;-82
2022/02/14 10:33:50;;;;;;;3.00;2.30;;;18.90;42.50;;;;;;5000204;28;20500;-82
2022/02/14 10:36:32;;;;;;;4.20;1.90;;;18.90;42.60;;;;;;5000647;28;20500;-82
2022/02/14 10:39:20;;;;;;;2.83;2.20;;;18.90;42.70;;;;;;5002158;28;20477;-83
2022/02/14 10:41:56;;;;;;;3.63;2.30;;;19.00;43.10;;;;;;5000938;28;20519;-83
2022/02/14 10:47:16;;;;;;;2.83;2.30;;;19.20;42.90;;;;;;5004987;28;20441;-82
2022/02/14 10:49:58;;;;;;;2.40;2.20;;;19.30;42.90;;;;;;5004458;28;20412;-82
2022/02/14 10:52:29;;;;;;;1.90;1.80;;;19.30;42.80;;;;;;5004649;28;20453;-82
2022/02/14 10:55:00;;;;;;;2.40;2.20;;;19.30;42.60;;;;;;5003582;28;20457;-82
2022/02/14 10:57:30;;;;;;;1.80;1.70;;;19.30;42.70;;;;;;5002056;28;20521;-83
2022/02/14 11:00:01;;;;;;;3.27;2.10;;;19.30;42.90;;;;;;5002198;28;20524;-82
2022/02/14 11:02:29;;;;;;;4.03;1.70;;;19.30;42.80;;;;;;5003596;28;20439;-82
2022/02/14 11:04:58;;;;;;;4.50;2.10;;;19.30;42.90;;;;;;5004332;28;20512;-83
2022/02/14 11:07:27;;;;;;;2.03;1.90;;;19.30;42.90;;;;;;5002948;28;20437;-83
2022/02/14 11:09:57;;;;;;;3.83;1.70;;;19.30;42.90;;;;;;5003423;28;20528;-83
2022/02/14 11:12:56;;;;;;;;;;;;;;;;;;;;;
2022/02/14 11:15:33;;;;;;;2.80;2.13;;;19.30;43.00;;;;;;4981987;28;20480;-83
2022/02/14 11:18:06;;;;;;;1.90;1.80;;;19.20;43.00;;;;;;5002749;28;20449;-82
2022/02/14 11:20:40;;;;;;;2.80;1.70;;;19.20;43.20;;;;;;5003234;28;20485;-83
2022/02/14 11:23:10;;;;;;;2.73;2.03;;;19.20;43.30;;;;;;5002484;28;20441;-83
2022/02/14 11:25:44;;;;;;;2.03;1.80;;;19.20;43.40;;;;;;5004899;28;20500;-83
2022/02/14 11:28:16;;;;;;;3.97;1.90;;;19.10;43.40;;;;;;4998118;28;20451;-82
2022/02/14 11:30:48;;;;;;;3.30;2.00;;;19.10;43.70;;;;;;5001088;28;20445;-84
2022/02/14 11:33:20;;;;;;;2.20;2.00;;;19.00;43.80;;;;;;4999104;28;20472;-83
2022/02/14 11:35:58;;;;;;;3.90;1.90;;;18.90;44.00;;;;;;5001257;28;20972;-83
2022/02/14 11:38:43;;;;;;;2.20;2.03;;;18.80;44.40;;;;;;5000771;28;20464;-84
2022/02/14 11:41:24;;;;;;;1.57;1.57;;;18.80;44.60;;;;;;5000719;28;20468;-83
2022/02/14 11:43:52;;;;;;;4.37;2.10;;;18.80;44.80;;;;;;5002366;28;20417;-83
2022/02/14 11:46:25;;;;;;;1.80;1.70;;;18.70;44.80;;;;;;5002568;28;20491;-83
2022/02/14 11:49:08;;;;;;;1.80;1.70;;;18.80;45.10;;;;;;5000757;28;20447;-83
2022/02/14 11:51:37;;;;;;;5.03;1.60;;;18.80;45.20;;;;;;5000605;28;20531;-86
2022/02/14 11:54:05;;;;;;;1.50;1.40;;;18.90;45.20;;;;;;4998564;28;20477;-84
2022/02/14 11:56:33;;;;;;;2.10;1.80;;;18.90;45.20;;;;;;4999144;28;20476;-84
2022/02/14 11:59:05;;;;;;;1.77;1.67;;;19.10;45.30;;;;;;4998039;28;20488;-83
2022/02/14 12:01:36;;;;;;;1.57;1.47;;;19.20;45.30;;;;;;4997595;28;20469;-83
2022/02/14 12:04:56;;;;;;;2.70;1.60;;;19.30;45.00;;;;;;4998374;28;20473;-84
2022/02/14 12:07:34;;;;;;;1.97;1.87;;;19.30;45.00;;;;;;4920666;29;20473;-85
2022/02/14 12:10:22;;;;;;;4.33;1.67;;;19.30;45.10;;;;;;4923270;29;20457;-85
2022/02/14 12:13:08;;;;;;;1.23;1.23;;;19.40;45.20;;;;;;4972735;28;20879;-84
2022/02/14 12:21:15;;;;;;;1.50;1.40;;;22.00;43.20;;;;;;4998010;28;20433;-83
2022/02/14 12:24:12;;;;;;;2.43;1.60;;;23.00;41.80;;;;;;4999719;28;20469;-83
2022/02/14 12:26:40;;;;;;;1.67;1.60;;;23.80;40.70;;;;;;4998008;28;20445;-83
2022/02/14 12:32:01;;;;;;;1.50;1.40;;;24.40;40.00;;;;;;4997704;28;20500;-83
2022/02/14 12:34:31;;;;;;;2.30;1.50;;;24.60;39.00;;;;;;4994478;28;20477;-83
2022/02/14 12:37:01;;;;;;;1.30;1.30;;;24.30;39.70;;;;;;4999199;28;20490;-83
2022/02/14 12:39:31;;;;;;;2.50;1.47;;;23.90;39.90;;;;;;4998105;28;20528;-82
2022/02/14 12:41:59;;;;;;;1.30;1.20;;;23.50;40.50;;;;;;4999269;28;20500;-83
2022/02/14 12:44:30;;;;;;;1.63;1.53;;;23.10;40.80;;;;;;4999259;28;20491;-83
2022/02/14 12:46:58;;;;;;;1.47;1.10;;;22.70;41.40;;;;;;4999322;28;20533;-83
2022/02/14 12:49:26;;;;;;;1.87;1.40;;;22.40;41.90;;;;;;4997835;28;20481;-83
2022/02/14 12:52:08;;;;;;;2.77;1.30;;;22.10;42.20;;;;;;4994933;28;20492;-83
2022/02/14 12:54:39;;;;;;;1.30;1.30;;;21.90;42.60;;;;;;5004694;28;20469;-82
2022/02/14 12:57:07;;;;;;;1.60;1.50;;;21.70;42.80;;;;;;5015773;28;20443;-81
2022/02/14 12:59:35;;;;;;;1.77;1.33;;;21.50;43.20;;;;;;5015161;28;20503;-83
2022/02/14 13:02:03;;;;;;;1.23;1.10;;;21.50;43.50;;;;;;5013410;28;20476;-82
2022/02/14 13:04:31;;;;;;;1.70;1.30;;;21.50;43.50;;;;;;5012999;28;20465;-82
2022/02/14 13:07:01;;;;;;;1.30;1.20;;;21.40;43.60;;;;;;5014031;28;20472;-83
2022/02/14 13:09:30;;;;;;;1.40;1.30;;;21.30;43.60;;;;;;4996884;28;20507;-83
2022/02/14 13:11:59;;;;;;;1.20;1.10;;;21.20;43.80;;;;;;4997283;28;20457;-82
2022/02/14 13:14:34;;;;;;;2.80;1.40;;;21.10;43.90;;;;;;4998708;28;20447;-81
2022/02/14 13:17:13;;;;;;;1.47;1.37;;;20.90;44.10;;;;;;4997702;28;20469;-83